Airfield :







YOU CAN JOIN US ON...

 
LOGIN :

Register | Disclaimer

   EN    FR    IT 

 









Legend :    VFR   Marginal VFR   IFR   Intensive IFR   Very Intensive IFR
Visi :
Ceiling :
>= 8 km
>= 3000ft
5 to 8 km
1000 to 3000 ft
1500m to 5 km
500 to 1000 ft
800 to 1500m
200 to 500 ft
< 800m
< 200 ft
Symbols :   Thunderstorms  Fog  Heavy snow  Heavy precipitations  Wind > 20 kt






- Airport Elevation : 108 ft
- IATA code : YGP


CYGP - Gaspé

CURRENT METAR :
  • 170400Z 27012KT 15SM FEW035 M04/M10 A3023 RMK CU1 SLP240

EXPIRED METARs :
  • 170300Z 28014G20KT 15SM FEW035 M03/M10 A3020 RMK CU1 CU TR SLP229
  • 170200Z 28014G26KT 15SM FEW040 M03/M10 A3017 RMK CU1 SLP221

TAF TAF CYGP
Valid from the 17 at 02:00 until the 17 at 14:00 UTC


170138Z 1702/1714 28012G22KT P6SM SKC
BECMG 1702/1704 28010KT
BECMG 1710/1712 27005KT RMK NXT FCST BY 170800Z



MET'MAP, your aeronautical weather chart ! - Copyright ORBIFLY December 2007 - Disclaimer

ORBIFLY MET'MAP TEAM :

Programming & Development : Alexandra Zaïnal
Concept & Development : Baudouin d'Aumeries
Co-Development & Prog : Marc-Olivier Méhu
Technical & hardware support : Manuel Goepfert

Contact : metmap@orbifly.com




SOURCES & CREDITS :

   NOAA